Armstrong, PA

6:56 AM EDT on September 04, 2015 (GMT -0400)
Cochran Avenue | | Change Station
CLOSE
Current Station
Personal Weather Station
Location: Duboistown, PA
Elevation: 604 ft
Nearby Weather Stations

Elev 604 ft 41.22 °N, 77.05 °W | Updated 14 seconds ago

Mostly Cloudy
Mostly Cloudy
67.1 °F
Feels Like 67.1 °F
N
0.7
Wind Variable Wind from East
Gusts 1.6 mph

Today
High -- | Low -- °F
--% Chance of Precip.
Yesterday
High -- | Low -- °F
Precip. -- in
6:37 AM 7:36 PM
Waning Gibbous, 60% visible
Pressure 30.02 in
Visibility 5.0 miles
Clouds Mostly Cloudy 400 ft
Dew Point 67 °F
Humidity 99%
Rainfall 0.00 in
Snow Depth Not available.
UV 0 out of 12
Pollen 9.50 out of 12
Air Quality Not available.
Flu Activity Not available.
METAR KIPT 041054Z 00000KT 5SM BR BKN004 20/18 A3003 RMK AO2 SLP165 T02000183
Pressure 30.02 in
Visibility 5.0 miles
Clouds Mostly Cloudy 400 ft
Dew Point 67 °F
Humidity 99%
Rainfall 0.00 in
Snow Depth Not available.
UV 0 out of 12
Pollen 9.50 out of 12
Air Quality Not available.
Flu Activity Not available.
METAR KIPT 041054Z 00000KT 5SM BR BKN004 20/18 A3003 RMK AO2 SLP165 T02000183

10-Day Weather Forecast

×

Almanac

Astronomy

Sep. 04, 2015 Rise Set
Actual Time
Civil Twilight
Nautical Twilight
Astronomical Twilight
Moon
Length of Visible Light
Length of Day
Tomorrow will be .
, % of the Moon is Illuminated

Today's Extremes

State Highs State Lows

Community

WunderPhotos

Upload Photos

1,852,146 photos uploaded!

WunderBlogs® & News

Nearby

Air Quality

  Air Quality AQ Index Pollutant
Not available.

Snow Depth

Station Depth Elevation

Earthquake Activity

City Distance Mag. Time & Date
Minimum magnitude displayed is 2.5.

Coastal Water Temperatures

Place Temperature

Stations

Nearby Weather Stations

Station Location Temp. Windchill Dew Point Humidity Wind Precip. Elev Updated Type